Time;durP1;ratioP1;P1;durP2;ratioP2;P2;SDS_P1;SDS_P2;PMS_P1;PMS_P2;Temp;Humidity;BMP_temperature;BMP_pressure;BME280_temperature;BME280_humidity;BME280_pressure;Samples;Min_cycle;Max_cycle;Signal;HPM_P1;HPM_P2
2023/04/15 00:01:28;;;;;;;;;;;14.60;75.00;;;;;;4019058;29;19931;-65
2023/04/15 00:04:09;;;;;;;;;;;14.60;74.20;;;;;;4018075;29;19935;-65
2023/04/15 00:06:51;;;;;;;;;;;14.60;74.30;;;;;;4023231;29;20466;-65
2023/04/15 00:09:32;;;;;;;;;;;14.60;75.30;;;;;;4024795;29;19935;-64
2023/04/15 00:12:13;;;;;;;;;;;14.60;74.40;;;;;;4018753;29;20065;-65
2023/04/15 00:14:53;;;;;;;;;;;14.60;74.50;;;;;;4018507;29;20035;-65
2023/04/15 00:17:37;;;;;;;;;;;14.60;74.60;;;;;;4018580;29;19935;-65
2023/04/15 00:20:17;;;;;;;;;;;14.60;74.70;;;;;;4018722;29;19935;-65
2023/04/15 00:22:59;;;;;;;;;;;14.60;74.70;;;;;;4012827;29;19931;-65
2023/04/15 00:25:40;;;;;;;;;;;14.60;75.60;;;;;;4003505;29;20060;-65
2023/04/15 00:28:21;;;;;;;;;;;14.50;74.80;;;;;;4003226;29;19934;-65
2023/04/15 00:31:02;;;;;;;;;;;14.50;74.50;;;;;;4007753;29;19931;-65
2023/04/15 00:33:44;;;;;;;;;;;14.50;75.00;;;;;;4027613;29;19935;-66
2023/04/15 00:36:25;;;;;;;;;;;14.50;74.70;;;;;;4028053;29;19943;-65
2023/04/15 00:39:05;;;;;;;;;;;14.50;73.80;;;;;;4018407;29;20028;-65
2023/04/15 00:41:46;;;;;;;;;;;14.50;73.60;;;;;;4018390;29;20394;-65
2023/04/15 00:44:27;;;;;;;;;;;14.50;74.30;;;;;;4011745;29;20299;-65
2023/04/15 00:47:08;;;;;;;;;;;14.40;74.60;;;;;;4028051;29;20023;-65
2023/04/15 00:49:50;;;;;;;;;;;14.40;74.60;;;;;;4017776;29;19979;-65
2023/04/15 00:52:31;;;;;;;;;;;14.40;74.60;;;;;;4009465;29;19931;-65
2023/04/15 00:55:12;;;;;;;;;;;14.40;74.80;;;;;;4017576;29;19935;-65
2023/04/15 00:57:52;;;;;;;;;;;14.40;74.70;;;;;;4027525;29;19930;-63
2023/04/15 01:00:34;;;;;;;;;;;14.40;74.30;;;;;;4017565;29;20387;-64
2023/04/15 01:03:16;;;;;;;;;;;14.40;73.80;;;;;;4016791;29;19931;-63
2023/04/15 01:05:59;;;;;;;;;;;14.30;74.10;;;;;;4017356;29;19931;-65
2023/04/15 01:08:41;;;;;;;;;;;14.30;74.00;;;;;;4014982;29;20397;-64
2023/04/15 01:11:23;;;;;;;;;;;14.30;74.10;;;;;;4021512;29;19934;-64
2023/04/15 01:14:04;;;;;;;;;;;14.30;73.70;;;;;;4017633;29;19935;-64
2023/04/15 01:16:45;;;;;;;;;;;14.30;73.80;;;;;;4017849;29;19935;-65
2023/04/15 01:19:26;;;;;;;;;;;14.30;74.40;;;;;;4017895;29;20272;-66
2023/04/15 01:22:08;;;;;;;;;;;14.30;75.00;;;;;;4003523;29;19935;-65
2023/04/15 01:24:54;;;;;;;;;;;14.30;76.20;;;;;;4012176;29;19931;-65
2023/04/15 01:27:38;;;;;;;;;;;14.30;75.70;;;;;;4002787;29;20361;-65
2023/04/15 01:30:19;;;;;;;;;;;14.30;76.00;;;;;;4026303;29;19935;-66
2023/04/15 01:33:00;;;;;;;;;;;14.20;76.00;;;;;;4016532;29;19971;-66
2023/04/15 01:36:00;;;;;;;;;;;14.20;76.20;;;;;;4017178;29;19983;-67
2023/04/15 01:38:41;;;;;;;;;;;14.30;76.50;;;;;;4017440;29;19935;-66
2023/04/15 01:41:22;;;;;;;;;;;14.20;76.50;;;;;;4026802;29;19935;-66
2023/04/15 01:44:06;;;;;;;;;;;14.20;76.60;;;;;;4014800;29;19939;-66
2023/04/15 01:46:48;;;;;;;;;;;14.20;76.70;;;;;;4016563;29;19931;-67
2023/04/15 01:49:29;;;;;;;;;;;14.20;76.90;;;;;;4017686;29;19931;-66
2023/04/15 01:52:09;;;;;;;;;;;14.20;76.90;;;;;;4002201;29;19935;-66
2023/04/15 01:54:52;;;;;;;;;;;14.20;77.00;;;;;;4012019;29;20372;-66
2023/04/15 01:57:33;;;;;;;;;;;14.20;77.00;;;;;;4002116;29;19935;-67
2023/04/15 02:00:16;;;;;;;;;;;14.20;77.00;;;;;;4016638;29;20332;-67
2023/04/15 02:02:58;;;;;;;;;;;14.20;77.00;;;;;;4016451;29;19935;-65
2023/04/15 02:05:38;;;;;;;;;;;14.20;77.20;;;;;;4017039;29;19939;-66
2023/04/15 02:08:19;;;;;;;;;;;14.20;77.20;;;;;;4026993;29;19947;-65
2023/04/15 02:11:00;;;;;;;;;;;14.20;77.20;;;;;;4017383;29;19944;-65
2023/04/15 02:13:41;;;;;;;;;;;14.20;77.30;;;;;;4011714;29;19935;-63
2023/04/15 02:16:23;;;;;;;;;;;14.10;77.30;;;;;;4017289;29;19931;-67
2023/04/15 02:19:03;;;;;;;;;;;14.10;77.40;;;;;;4020157;29;20011;-65
2023/04/15 02:21:44;;;;;;;;;;;14.10;77.50;;;;;;4030117;29;20064;-65
2023/04/15 02:24:24;;;;;;;;;;;14.10;78.50;;;;;;4019984;29;20064;-66
2023/04/15 02:27:05;;;;;;;;;;;14.10;77.70;;;;;;4020274;29;19931;-65
2023/04/15 02:29:45;;;;;;;;;;;14.10;77.80;;;;;;4029965;29;19935;-65
2023/04/15 02:32:27;;;;;;;;;;;14.10;77.80;;;;;;4019895;29;19931;-65
2023/04/15 02:35:09;;;;;;;;;;;14.10;77.90;;;;;;4029354;29;20031;-65
2023/04/15 02:37:50;;;;;;;;;;;14.10;78.10;;;;;;4020194;29;19975;-66
2023/04/15 02:40:31;;;;;;;;;;;14.10;78.20;;;;;;4029541;29;19935;-66
2023/04/15 02:43:11;;;;;;;;;;;14.10;78.30;;;;;;4019687;29;20097;-65
2023/04/15 02:45:52;;;;;;;;;;;14.10;78.40;;;;;;4003475;29;19935;-64
2023/04/15 02:48:34;;;;;;;;;;;14.10;78.50;;;;;;4014529;29;19931;-65
2023/04/15 02:51:18;;;;;;;;;;;14.10;78.60;;;;;;4019012;29;19953;-65
2023/04/15 02:54:00;;;;;;;;;;;14.10;78.60;;;;;;4018828;29;20292;-64
2023/04/15 02:56:41;;;;;;;;;;;14.10;78.70;;;;;;4019794;29;19951;-65
2023/04/15 02:59:21;;;;;;;;;;;14.10;78.70;;;;;;4019691;29;20011;-65
2023/04/15 03:02:02;;;;;;;;;;;14.10;78.80;;;;;;4013520;29;19948;-65
2023/04/15 03:04:44;;;;;;;;;;;14.10;78.80;;;;;;4029528;29;19930;-65
2023/04/15 03:07:25;;;;;;;;;;;14.10;79.80;;;;;;4019633;29;19931;-65
2023/04/15 03:10:07;;;;;;;;;;;14.10;79.00;;;;;;4029499;29;20272;-65
2023/04/15 03:12:48;;;;;;;;;;;14.10;79.20;;;;;;4029267;29;20506;-65
2023/04/15 03:15:34;;;;;;;;;;;14.10;79.30;;;;;;4018481;29;19993;-65
2023/04/15 03:18:15;;;;;;;;;;;14.10;79.40;;;;;;4011893;29;19960;-65
2023/04/15 03:20:57;;;;;;;;;;;14.10;79.30;;;;;;4029213;29;19934;-64
2023/04/15 03:23:38;;;;;;;;;;;14.00;79.30;;;;;;4018561;29;19939;-65
2023/04/15 03:26:26;;;;;;;;;;;14.10;79.50;;;;;;4019300;29;19950;-65
2023/04/15 03:29:10;;;;;;;;;;;14.00;79.60;;;;;;4023942;29;19935;-64
2023/04/15 03:31:52;;;;;;;;;;;14.00;80.50;;;;;;4027545;29;19931;-64
2023/04/15 03:34:32;;;;;;;;;;;14.00;79.60;;;;;;4002917;29;19935;-64
2023/04/15 03:37:15;;;;;;;;;;;14.00;79.60;;;;;;4022248;29;19930;-65
2023/04/15 03:39:56;;;;;;;;;;;14.00;79.70;;;;;;4019055;29;20060;-65
2023/04/15 03:42:36;;;;;;;;;;;14.10;79.80;;;;;;4019204;29;20060;-65
2023/04/15 03:45:17;;;;;;;;;;;14.00;79.90;;;;;;4019320;29;20267;-65
2023/04/15 03:47:57;;;;;;;;;;;14.00;79.90;;;;;;4019243;29;19935;-65
2023/04/15 03:50:55;;;;;;;;;;;14.00;80.00;;;;;;4007409;29;19935;-65
2023/04/15 03:53:37;;;;;;;;;;;14.00;80.00;;;;;;4019003;29;19931;-65
2023/04/15 03:56:18;;;;;;;;;;;14.00;80.00;;;;;;4018810;29;19931;-65
2023/04/15 03:58:58;;;;;;;;;;;14.00;80.10;;;;;;4018944;29;19935;-65
2023/04/15 04:01:39;;;;;;;;;;;14.00;80.10;;;;;;4018576;29;20049;-64
2023/04/15 04:04:20;;;;;;;;;;;14.00;80.20;;;;;;4004705;29;20398;-64
2023/04/15 04:07:00;;;;;;;;;;;14.00;80.20;;;;;;4018717;29;20015;-65
2023/04/15 04:09:43;;;;;;;;;;;14.00;80.20;;;;;;4018729;29;19935;-65
2023/04/15 04:12:25;;;;;;;;;;;14.00;80.30;;;;;;4018721;29;19935;-65
2023/04/15 04:15:06;;;;;;;;;;;14.00;80.40;;;;;;4003287;29;19981;-64
2023/04/15 04:17:47;;;;;;;;;;;13.90;80.40;;;;;;3996944;29;19932;-65
2023/04/15 04:20:28;;;;;;;;;;;14.00;80.50;;;;;;4010562;29;20289;-65
2023/04/15 04:23:09;;;;;;;;;;;14.00;81.40;;;;;;4014451;29;19932;-65
2023/04/15 04:25:51;;;;;;;;;;;14.00;80.60;;;;;;4018119;29;19980;-66
2023/04/15 04:28:32;;;;;;;;;;;14.00;80.60;;;;;;4018668;29;20046;-66
2023/04/15 04:31:13;;;;;;;;;;;14.00;80.60;;;;;;4018353;29;19970;-65
2023/04/15 04:33:53;;;;;;;;;;;14.00;80.70;;;;;;4018443;29;20317;-66
2023/04/15 04:36:35;;;;;;;;;;;13.90;80.70;;;;;;4003318;29;19947;-66
2023/04/15 04:39:16;;;;;;;;;;;14.00;80.80;;;;;;4009574;29;19934;-65
2023/04/15 04:41:58;;;;;;;;;;;13.90;80.70;;;;;;4018089;29;20292;-66
2023/04/15 04:44:38;;;;;;;;;;;13.90;80.80;;;;;;4003062;29;19939;-66
2023/04/15 04:47:19;;;;;;;;;;;13.90;80.80;;;;;;4003224;29;19934;-65
2023/04/15 04:50:00;;;;;;;;;;;13.90;80.80;;;;;;4002920;29;20031;-64
2023/04/15 04:52:40;;;;;;;;;;;13.90;80.90;;;;;;4017676;29;20045;-65
2023/04/15 04:55:21;;;;;;;;;;;13.90;80.90;;;;;;4017509;29;19935;-65
2023/04/15 04:58:03;;;;;;;;;;;13.90;81.80;;;;;;4016656;29;20037;-65
2023/04/15 05:00:43;;;;;;;;;;;13.90;81.00;;;;;;4017870;29;19935;-65
2023/04/15 05:03:24;;;;;;;;;;;13.90;81.00;;;;;;4018019;29;19943;-67
2023/04/15 05:06:07;;;;;;;;;;;13.90;81.10;;;;;;4017800;29;19935;-65
2023/04/15 05:08:48;;;;;;;;;;;13.90;81.10;;;;;;4017765;29;19931;-66
2023/04/15 05:11:28;;;;;;;;;;;13.90;81.20;;;;;;4016817;29;19983;-66
2023/04/15 05:14:10;;;;;;;;;;;13.90;81.20;;;;;;4017367;29;20399;-64
2023/04/15 05:16:51;;;;;;;;;;;13.90;81.20;;;;;;4017186;29;19931;-63
2023/04/15 05:19:31;;;;;;;;;;;13.90;81.20;;;;;;4017563;29;19952;-63
2023/04/15 05:22:12;;;;;;;;;;;13.90;81.30;;;;;;4017770;29;20283;-63
2023/04/15 05:24:52;;;;;;;;;;;13.90;81.20;;;;;;4002643;29;19936;-63
2023/04/15 05:27:33;;;;;;;;;;;13.90;81.00;;;;;;4013468;29;19972;-62
2023/04/15 05:30:15;;;;;;;;;;;13.90;80.90;;;;;;4002660;29;20048;-62
2023/04/15 05:32:56;;;;;;;;;;;13.90;80.90;;;;;;4002568;29;19936;-63
2023/04/15 05:35:36;;;;;;;;;;;13.90;80.80;;;;;;4002586;29;20280;-63
2023/04/15 05:38:17;;;;;;;;;;;13.90;80.90;;;;;;4002362;29;19931;-62
2023/04/15 05:40:57;;;;;;;;;;;13.90;80.80;;;;;;4007678;29;19935;-63
2023/04/15 05:43:38;;;;;;;;;;;13.80;80.80;;;;;;4017470;29;20057;-63
2023/04/15 05:46:21;;;;;;;;;;;13.80;80.80;;;;;;4014895;29;19957;-63
2023/04/15 05:49:02;;;;;;;;;;;13.80;80.80;;;;;;4017345;29;20415;-63
2023/04/15 05:51:43;;;;;;;;;;;13.80;80.90;;;;;;4017306;29;19980;-63
2023/04/15 05:54:26;;;;;;;;;;;13.80;80.90;;;;;;4017640;29;19931;-63
2023/04/15 05:57:07;;;;;;;;;;;13.70;80.90;;;;;;4017553;29;19931;-63
2023/04/15 05:59:47;;;;;;;;;;;13.80;80.80;;;;;;4017355;29;19931;-62
2023/04/15 06:02:30;;;;;;;;;;;13.70;80.70;;;;;;4002197;29;19931;-62
2023/04/15 06:05:11;;;;;;;;;;;13.70;80.70;;;;;;4002284;29;19935;-63
2023/04/15 06:07:52;;;;;;;;;;;13.70;80.90;;;;;;4002197;29;19939;-63
2023/04/15 06:10:35;;;;;;;;;;;13.70;80.90;;;;;;4002886;29;19947;-63
2023/04/15 06:13:16;;;;;;;;;;;13.70;81.00;;;;;;4017355;29;20067;-63
2023/04/15 06:15:57;;;;;;;;;;;13.70;80.70;;;;;;4017240;29;19935;-63
2023/04/15 06:18:39;;;;;;;;;;;13.60;80.50;;;;;;4004361;29;19935;-63
2023/04/15 06:21:20;;;;;;;;;;;13.60;80.40;;;;;;4016889;29;20399;-62
2023/04/15 06:24:02;;;;;;;;;;;13.60;79.70;;;;;;4017102;29;20010;-62
2023/04/15 06:26:43;;;;;;;;;;;13.60;80.20;;;;;;4017146;29;20023;-62
2023/04/15 06:29:23;;;;;;;;;;;13.60;80.30;;;;;;4016938;29;19931;-62
2023/04/15 06:32:04;;;;;;;;;;;13.60;81.20;;;;;;4017240;29;20045;-62
2023/04/15 06:34:46;;;;;;;;;;;13.60;80.50;;;;;;4017011;29;19932;-63
2023/04/15 06:37:26;;;;;;;;;;;13.60;80.70;;;;;;4017358;29;19931;-65
2023/04/15 06:40:08;;;;;;;;;;;13.60;80.90;;;;;;4017012;29;20388;-64
2023/04/15 06:42:49;;;;;;;;;;;13.60;81.20;;;;;;4001864;29;19931;-65
2023/04/15 06:45:30;;;;;;;;;;;13.70;81.10;;;;;;4002027;29;19936;-66
2023/04/15 06:48:11;;;;;;;;;;;13.70;81.00;;;;;;4002273;29;19931;-65
2023/04/15 06:50:53;;;;;;;;;;;13.80;81.20;;;;;;4016653;29;19930;-66
2023/04/15 06:53:34;;;;;;;;;;;13.70;81.20;;;;;;4010944;29;19931;-66
2023/04/15 06:56:15;;;;;;;;;;;13.80;81.20;;;;;;4015653;29;20006;-66
2023/04/15 06:58:56;;;;;;;;;;;13.70;81.30;;;;;;4010264;29;20400;-66
2023/04/15 07:01:36;;;;;;;;;;;13.70;81.40;;;;;;4016204;29;19935;-66
2023/04/15 07:04:17;;;;;;;;;;;13.70;81.20;;;;;;4003146;29;19931;-69
2023/04/15 07:07:01;;;;;;;;;;;13.70;82.20;;;;;;4004503;29;20432;-66
2023/04/15 07:09:43;;;;;;;;;;;13.60;81.40;;;;;;4028296;29;19931;-67
2023/04/15 07:12:24;;;;;;;;;;;13.60;81.50;;;;;;4019949;29;20033;-65
2023/04/15 07:15:05;;;;;;;;;;;13.60;81.70;;;;;;4019447;29;20048;-66
2023/04/15 07:17:46;;;;;;;;;;;13.60;81.70;;;;;;4019144;29;19931;-67
2023/04/15 07:20:27;;;;;;;;;;;13.60;82.40;;;;;;4004468;29;19931;-65
2023/04/15 07:23:09;;;;;;;;;;;13.60;81.50;;;;;;4004116;29;20047;-66
2023/04/15 07:25:50;;;;;;;;;;;13.60;81.00;;;;;;4017647;29;19935;-65
2023/04/15 07:28:31;;;;;;;;;;;13.60;80.70;;;;;;4019230;29;20290;-65
2023/04/15 07:31:12;;;;;;;;;;;13.60;80.40;;;;;;4019635;29;20402;-65
2023/04/15 07:33:53;;;;;;;;;;;13.60;80.60;;;;;;4019450;29;19943;-68
2023/04/15 07:36:34;;;;;;;;;;;13.60;80.30;;;;;;4018834;29;19953;-67
2023/04/15 07:39:16;;;;;;;;;;;13.60;80.80;;;;;;4004019;29;20456;-70
2023/04/15 07:41:57;;;;;;;;;;;13.60;81.80;;;;;;4003931;29;19931;-71
2023/04/15 07:44:38;;;;;;;;;;;13.60;81.00;;;;;;4007641;29;20298;-70
2023/04/15 07:47:19;;;;;;;;;;;13.60;81.60;;;;;;4028585;29;20071;-69
2023/04/15 07:50:01;;;;;;;;;;;13.70;80.30;;;;;;4019053;29;20387;-69
2023/04/15 07:52:41;;;;;;;;;;;13.60;80.30;;;;;;4019170;29;19935;-69
2023/04/15 07:55:24;;;;;;;;;;;13.70;80.60;;;;;;4018791;29;19935;-69
2023/04/15 07:58:06;;;;;;;;;;;13.60;79.90;;;;;;4018524;29;19994;-69
2023/04/15 08:00:46;;;;;;;;;;;13.60;81.10;;;;;;4019122;29;19932;-69
2023/04/15 08:03:27;;;;;;;;;;;13.60;79.60;;;;;;4018837;29;19947;-68
2023/04/15 08:06:08;;;;;;;;;;;13.60;80.50;;;;;;4018524;29;19952;-67
2023/04/15 08:08:48;;;;;;;;;;;13.60;79.30;;;;;;4018602;29;19950;-67
2023/04/15 08:11:30;;;;;;;;;;;13.60;80.50;;;;;;4018830;29;20056;-68
2023/04/15 08:14:11;;;;;;;;;;;13.60;79.60;;;;;;4018358;29;19931;-68
2023/04/15 08:16:51;;;;;;;;;;;13.60;79.40;;;;;;4018402;29;19935;-67
2023/04/15 08:19:32;;;;;;;;;;;13.60;80.10;;;;;;4018773;29;20061;-69
2023/04/15 08:22:13;;;;;;;;;;;13.50;79.30;;;;;;4018308;29;20394;-68
2023/04/15 08:24:54;;;;;;;;;;;13.50;80.00;;;;;;4018414;29;19934;-66
2023/04/15 08:27:36;;;;;;;;;;;13.50;79.30;;;;;;4018343;29;19935;-69
2023/04/15 08:30:17;;;;;;;;;;;13.50;79.50;;;;;;4018587;29;20387;-69
2023/04/15 08:32:58;;;;;;;;;;;13.50;80.20;;;;;;4018460;29;19934;-69
2023/04/15 08:35:39;;;;;;;;;;;13.50;79.60;;;;;;4018512;29;20035;-71
2023/04/15 08:38:19;;;;;;;;;;;13.50;79.40;;;;;;4027967;29;19951;-70
2023/04/15 08:41:02;;;;;;;;;;;13.50;79.70;;;;;;4018457;29;20080;-67
2023/04/15 08:43:47;;;;;;;;;;;13.50;79.50;;;;;;4018334;29;19935;-65
2023/04/15 08:46:28;;;;;;;;;;;13.50;78.90;;;;;;4018430;29;19931;-65
2023/04/15 08:49:10;;;;;;;;;;;13.50;79.30;;;;;;4018168;29;19936;-65
2023/04/15 08:51:51;;;;;;;;;;;13.50;79.30;;;;;;4018218;29;19946;-65
2023/04/15 08:54:32;;;;;;;;;;;13.50;79.40;;;;;;4027563;29;19940;-65
2023/04/15 08:57:13;;;;;;;;;;;13.50;79.30;;;;;;4018129;29;19984;-65
2023/04/15 08:59:55;;;;;;;;;;;13.50;79.40;;;;;;4018027;29;19939;-66
2023/04/15 09:02:37;;;;;;;;;;;13.50;79.30;;;;;;4018189;29;19935;-65
2023/04/15 09:05:20;;;;;;;;;;;13.50;79.80;;;;;;4018091;29;19931;-67
2023/04/15 09:08:01;;;;;;;;;;;13.50;78.90;;;;;;4018056;29;20057;-66
2023/04/15 09:10:42;;;;;;;;;;;13.50;79.60;;;;;;4017496;29;20011;-66
2023/04/15 09:13:23;;;;;;;;;;;13.50;78.80;;;;;;4017860;29;20394;-65
2023/04/15 09:16:05;;;;;;;;;;;13.50;79.00;;;;;;4017940;29;19931;-66
2023/04/15 09:18:46;;;;;;;;;;;13.50;78.70;;;;;;4017744;29;19931;-65
2023/04/15 09:21:28;;;;;;;;;;;13.50;78.40;;;;;;4017938;29;19936;-64
2023/04/15 09:24:09;;;;;;;;;;;13.50;78.40;;;;;;4017923;29;20492;-65
2023/04/15 09:26:52;;;;;;;;;;;13.50;79.20;;;;;;4017174;29;20108;-65
2023/04/15 09:29:32;;;;;;;;;;;13.50;78.90;;;;;;4017172;29;19931;-65
2023/04/15 09:32:15;;;;;;;;;;;13.50;78.80;;;;;;4017673;29;19935;-65
2023/04/15 09:34:56;;;;;;;;;;;13.50;78.80;;;;;;4017723;29;19931;-65
2023/04/15 09:37:37;;;;;;;;;;;13.50;78.00;;;;;;4017676;29;20295;-65
2023/04/15 09:40:30;;;;;;;;;;;13.50;79.10;;;;;;4017647;29;19931;-67
2023/04/15 09:43:12;;;;;;;;;;;13.50;78.20;;;;;;4017073;29;20056;-65
2023/04/15 09:45:53;;;;;;;;;;;13.50;78.60;;;;;;4017421;29;19931;-65
2023/04/15 09:48:36;;;;;;;;;;;13.50;78.50;;;;;;4017220;29;19967;-65
2023/04/15 09:51:17;;;;;;;;;;;13.50;78.70;;;;;;4017399;29;20381;-65
2023/04/15 09:53:58;;;;;;;;;;;13.50;78.50;;;;;;4017585;29;19931;-66
2023/04/15 09:56:41;;;;;;;;;;;13.50;78.60;;;;;;4017423;29;19940;-66
2023/04/15 09:59:22;;;;;;;;;;;13.50;78.70;;;;;;4026117;29;19935;-64
2023/04/15 10:02:04;;;;;;;;;;;13.50;78.40;;;;;;4016959;29;19931;-66
2023/04/15 10:04:48;;;;;;;;;;;13.50;78.00;;;;;;4017354;29;19935;-65
2023/04/15 10:07:28;;;;;;;;;;;13.50;78.40;;;;;;4016290;29;19934;-66
2023/04/15 10:10:10;;;;;;;;;;;13.50;78.10;;;;;;4016126;29;19984;-66
2023/04/15 10:12:52;;;;;;;;;;;13.70;78.30;;;;;;4017516;29;19931;-66
2023/04/15 10:15:33;;;;;;;;;;;14.10;76.70;;;;;;4017038;29;20038;-66
2023/04/15 10:18:16;;;;;;;;;;;14.50;75.50;;;;;;4017074;29;19935;-66
2023/04/15 10:21:00;;;;;;;;;;;14.90;74.10;;;;;;4016850;29;20444;-65
2023/04/15 10:23:40;;;;;;;;;;;15.30;72.20;;;;;;4017205;29;19934;-67
2023/04/15 10:26:21;;;;;;;;;;;15.80;70.80;;;;;;4017378;29;19930;-67
2023/04/15 10:29:02;;;;;;;;;;;16.20;69.30;;;;;;4016846;29;19952;-66
2023/04/15 10:31:43;;;;;;;;;;;16.60;67.40;;;;;;4016953;29;19931;-66
2023/04/15 10:34:24;;;;;;;;;;;16.90;65.70;;;;;;4016932;29;19979;-67
2023/04/15 10:37:09;;;;;;;;;;;17.20;65.30;;;;;;4017238;29;19935;-67
2023/04/15 10:39:50;;;;;;;;;;;17.60;64.20;;;;;;4019421;29;19939;-69
2023/04/15 10:42:34;;;;;;;;;;;17.80;63.10;;;;;;4019790;29;20391;-71
2023/04/15 10:45:16;;;;;;;;;;;18.00;62.60;;;;;;4019772;29;19931;-69
2023/04/15 10:47:58;;;;;;;;;;;18.10;61.30;;;;;;4020148;29;19939;-70
2023/04/15 10:50:40;;;;;;;;;;;18.20;60.50;;;;;;4013925;29;19931;-68
2023/04/15 10:53:28;;;;;;;;;;;18.20;59.90;;;;;;4012677;29;20281;-69
2023/04/15 10:56:09;;;;;;;;;;;18.10;59.90;;;;;;4011766;29;20061;-68
2023/04/15 10:58:50;;;;;;;;;;;18.00;60.70;;;;;;4015439;29;19931;-68
2023/04/15 11:01:50;;;;;;;;;;;17.80;60.70;;;;;;4013709;29;19935;-68
2023/04/15 11:04:54;;;;;;;;;;;17.70;61.50;;;;;;4013589;29;19950;-69
2023/04/15 11:07:36;;;;;;;;;;;17.70;62.10;;;;;;4019747;29;19940;-69
2023/04/15 11:10:51;;;;;;;;;;;17.60;61.60;;;;;;4019522;29;19931;-70
2023/04/15 11:13:35;;;;;;;;;;;17.50;62.00;;;;;;4019570;29;19983;-70
2023/04/15 11:16:15;;;;;;;;;;;17.40;61.70;;;;;;4011722;29;19936;-68
2023/04/15 11:18:56;;;;;;;;;;;17.30;61.50;;;;;;4019594;29;19963;-68
2023/04/15 11:21:37;;;;;;;;;;;17.20;62.00;;;;;;4019663;29;19934;-68
2023/04/15 11:24:25;;;;;;;;;;;17.20;62.70;;;;;;4019668;29;20299;-68
2023/04/15 11:27:05;;;;;;;;;;;17.20;63.10;;;;;;4019587;29;19931;-68
2023/04/15 11:29:48;;;;;;;;;;;17.20;63.20;;;;;;4019474;29;19935;-68
2023/04/15 11:32:28;;;;;;;;;;;17.20;62.80;;;;;;4019459;29;20065;-68
2023/04/15 11:35:09;;;;;;;;;;;17.30;62.40;;;;;;4019222;29;19930;-68
2023/04/15 11:37:50;;;;;;;;;;;17.40;62.80;;;;;;4019388;29;19934;-68
2023/04/15 11:40:32;;;;;;;;;;;17.50;62.80;;;;;;4019513;29;19944;-68
2023/04/15 11:43:13;;;;;;;;;;;17.60;62.60;;;;;;4019344;29;19967;-68
2023/04/15 11:45:56;;;;;;;;;;;17.70;62.40;;;;;;4019094;29;20738;-69
2023/04/15 11:48:41;;;;;;;;;;;17.80;61.90;;;;;;4019154;29;19979;-69
2023/04/15 11:51:22;;;;;;;;;;;17.90;61.80;;;;;;4019081;29;19979;-67
2023/04/15 11:54:02;;;;;;;;;;;17.90;60.30;;;;;;4019505;29;20037;-69
2023/04/15 11:56:50;;;;;;;;;;;18.00;60.00;;;;;;4019275;29;20459;-69
2023/04/15 11:59:41;;;;;;;;;;;17.90;60.10;;;;;;4018849;29;19949;-69
2023/04/15 12:02:31;;;;;;;;;;;17.80;61.20;;;;;;4018784;29;19935;-69
2023/04/15 12:05:12;;;;;;;;;;;17.80;61.20;;;;;;4018879;29;19935;-69
2023/04/15 12:07:59;;;;;;;;;;;17.70;61.70;;;;;;4018954;29;19930;-69
2023/04/15 12:10:40;;;;;;;;;;;17.70;62.10;;;;;;4018924;29;20371;-67
2023/04/15 12:13:21;;;;;;;;;;;17.60;62.40;;;;;;4019060;29;20061;-66
2023/04/15 12:16:03;;;;;;;;;;;17.60;63.50;;;;;;4028638;29;19951;-66
2023/04/15 12:18:47;;;;;;;;;;;17.60;62.90;;;;;;4018661;29;20056;-69
2023/04/15 12:21:28;;;;;;;;;;;17.70;62.40;;;;;;4018914;29;19932;-69
2023/04/15 12:24:11;;;;;;;;;;;17.70;62.50;;;;;;4018730;29;19931;-69
2023/04/15 12:26:52;;;;;;;;;;;17.70;62.30;;;;;;4028346;29;20015;-69
2023/04/15 12:29:34;;;;;;;;;;;17.80;62.20;;;;;;4018391;29;19931;-69
2023/04/15 12:32:15;;;;;;;;;;;17.80;62.10;;;;;;4018583;29;19934;-68
2023/04/15 12:34:58;;;;;;;;;;;17.80;61.60;;;;;;4018594;29;19940;-68
2023/04/15 12:37:39;;;;;;;;;;;17.80;62.20;;;;;;4017609;29;19939;-66
2023/04/15 12:40:19;;;;;;;;;;;17.90;62.20;;;;;;4018467;29;19962;-66
2023/04/15 12:43:00;;;;;;;;;;;17.90;61.80;;;;;;4018383;29;19983;-66
2023/04/15 12:45:42;;;;;;;;;;;17.90;61.80;;;;;;4018385;29;19930;-66
2023/04/15 12:48:23;;;;;;;;;;;17.80;62.20;;;;;;4018473;29;19930;-65
2023/04/15 12:51:05;;;;;;;;;;;17.80;62.40;;;;;;4018280;29;19950;-65
2023/04/15 12:53:46;;;;;;;;;;;17.90;61.90;;;;;;4018237;29;19931;-66
2023/04/15 12:56:27;;;;;;;;;;;17.90;62.40;;;;;;4018235;29;19930;-66
2023/04/15 12:59:07;;;;;;;;;;;17.90;62.10;;;;;;4018035;29;19971;-66
2023/04/15 13:01:48;;;;;;;;;;;17.90;62.10;;;;;;4017460;29;19935;-66
2023/04/15 13:04:30;;;;;;;;;;;17.80;61.50;;;;;;4018238;29;20095;-66
2023/04/15 13:07:14;;;;;;;;;;;17.70;62.10;;;;;;4018113;29;19931;-66
2023/04/15 13:09:56;;;;;;;;;;;17.60;62.10;;;;;;4018053;29;20053;-67
2023/04/15 13:12:36;;;;;;;;;;;17.60;63.70;;;;;;4017675;29;20308;-66
2023/04/15 13:15:19;;;;;;;;;;;17.60;63.10;;;;;;4016990;29;19935;-66
2023/04/15 13:18:00;;;;;;;;;;;17.60;63.10;;;;;;4017239;29;20011;-70
2023/04/15 13:20:41;;;;;;;;;;;17.60;63.30;;;;;;4004765;29;20056;-65
2023/04/15 13:23:23;;;;;;;;;;;17.60;64.10;;;;;;4017903;29;20440;-66
2023/04/15 13:26:04;;;;;;;;;;;17.60;64.00;;;;;;4013744;29;20069;-65
2023/04/15 13:28:45;;;;;;;;;;;17.70;62.80;;;;;;4016671;29;19935;-67
2023/04/15 13:31:25;;;;;;;;;;;17.80;62.50;;;;;;4009425;29;19978;-66
2023/04/15 13:34:07;;;;;;;;;;;17.80;63.10;;;;;;4017385;29;20296;-65
2023/04/15 13:36:48;;;;;;;;;;;17.80;62.70;;;;;;4016531;29;19935;-65
2023/04/15 13:39:30;;;;;;;;;;;17.70;62.20;;;;;;4017112;29;19931;-67
2023/04/15 13:42:10;;;;;;;;;;;17.70;62.60;;;;;;4017434;29;19947;-66
2023/04/15 13:44:51;;;;;;;;;;;17.60;62.60;;;;;;4016601;29;20483;-66
2023/04/15 13:47:32;;;;;;;;;;;17.60;62.60;;;;;;4001719;29;19932;-66
2023/04/15 13:50:12;;;;;;;;;;;17.50;63.60;;;;;;4002137;29;19935;-65
2023/04/15 13:52:53;;;;;;;;;;;17.40;63.90;;;;;;4002053;29;19931;-66
2023/04/15 13:55:36;;;;;;;;;;;17.20;64.10;;;;;;4013183;29;19935;-65
2023/04/15 13:58:17;;;;;;;;;;;17.10;64.60;;;;;;4016864;29;19963;-65
2023/04/15 14:00:58;;;;;;;;;;;17.00;64.70;;;;;;4026814;29;19931;-65
2023/04/15 14:03:38;;;;;;;;;;;16.90;65.20;;;;;;4016959;29;20305;-65
2023/04/15 14:06:19;;;;;;;;;;;16.90;65.60;;;;;;4017309;29;19971;-64
2023/04/15 14:09:00;;;;;;;;;;;17.00;65.70;;;;;;4016941;29;19934;-64
2023/04/15 14:11:42;;;;;;;;;;;17.00;65.80;;;;;;4017256;29;19946;-64
2023/04/15 14:14:23;;;;;;;;;;;17.10;65.50;;;;;;4005237;29;19952;-64
2023/04/15 14:17:04;;;;;;;;;;;17.10;65.60;;;;;;4005059;29;20060;-65
2023/04/15 14:19:45;;;;;;;;;;;17.10;65.60;;;;;;4005012;29;20377;-63
2023/04/15 14:22:25;;;;;;;;;;;17.20;65.30;;;;;;4007326;29;19930;-65
2023/04/15 14:25:06;;;;;;;;;;;17.20;65.20;;;;;;4023598;29;20276;-66
2023/04/15 14:27:48;;;;;;;;;;;17.30;64.50;;;;;;4019760;29;19946;-67
2023/04/15 14:30:29;;;;;;;;;;;17.20;64.20;;;;;;4019646;29;20050;-67
2023/04/15 14:33:10;;;;;;;;;;;17.20;64.40;;;;;;4020192;29;20402;-66
2023/04/15 14:35:51;;;;;;;;;;;17.20;65.00;;;;;;4019966;29;19935;-65
2023/04/15 14:38:32;;;;;;;;;;;17.10;65.10;;;;;;4020149;29;20024;-64
2023/04/15 14:41:13;;;;;;;;;;;17.10;65.50;;;;;;4019401;29;19931;-66
2023/04/15 14:43:55;;;;;;;;;;;17.10;65.50;;;;;;4019858;29;19935;-64
2023/04/15 14:46:36;;;;;;;;;;;17.10;66.60;;;;;;4019758;29;19931;-65
2023/04/15 14:49:16;;;;;;;;;;;17.10;65.00;;;;;;4019886;29;20410;-65
2023/04/15 14:51:57;;;;;;;;;;;17.10;64.80;;;;;;4011859;29;19935;-65
2023/04/15 14:54:37;;;;;;;;;;;17.10;65.00;;;;;;4019108;29;20036;-65
2023/04/15 14:57:18;;;;;;;;;;;17.10;65.80;;;;;;4004285;29;19935;-65
2023/04/15 15:00:00;;;;;;;;;;;17.10;65.90;;;;;;4004452;29;19930;-65
2023/04/15 15:02:42;;;;;;;;;;;17.10;66.00;;;;;;4004402;29;19939;-65
2023/04/15 15:05:22;;;;;;;;;;;17.10;66.20;;;;;;4004256;29;19959;-64
2023/04/15 15:08:03;;;;;;;;;;;17.10;66.30;;;;;;4007382;29;20395;-64
2023/04/15 15:10:44;;;;;;;;;;;17.20;65.90;;;;;;4019163;29;20069;-64
2023/04/15 15:13:26;;;;;;;;;;;17.20;65.10;;;;;;4019337;29;19935;-64
2023/04/15 15:16:08;;;;;;;;;;;17.20;65.10;;;;;;4019276;29;19931;-63
2023/04/15 15:18:49;;;;;;;;;;;17.20;65.40;;;;;;4019332;29;19935;-63
2023/04/15 15:21:30;;;;;;;;;;;17.10;65.70;;;;;;4019268;29;20311;-64
2023/04/15 15:24:11;;;;;;;;;;;17.20;65.70;;;;;;4018678;29;19931;-64
2023/04/15 15:26:51;;;;;;;;;;;17.20;65.70;;;;;;4019269;29;20031;-64
2023/04/15 15:29:32;;;;;;;;;;;17.30;65.50;;;;;;4004070;29;19931;-64
2023/04/15 15:32:14;;;;;;;;;;;17.60;65.30;;;;;;4003965;29;20029;-65
2023/04/15 15:34:55;;;;;;;;;;;17.80;64.40;;;;;;4004266;29;20391;-64
2023/04/15 15:37:37;;;;;;;;;;;18.10;63.30;;;;;;4017420;29;19931;-64
2023/04/15 15:40:18;;;;;;;;;;;18.40;62.70;;;;;;4004701;29;19935;-65